NOZ26 ENML-EGKK
Flight info
| Callsign | NOZ26 |
|---|---|
| Flight time | 2h 9m |
| Altitude | 34000 |
| Route | TUTOP DCT NIVUN DCT VENAS DCT BUKUT P7 BARMI |
| Aircraft | B738/M-SDE2E3FGHIRWXY/LB1 |
Departure
| Time | 2026-05-07 17:37 |
|---|---|
| Airport | Molde Airport, Årø (ENML) |
Arrival
| Time | 2026-05-07 19:46 |
|---|---|
| Airport | London Gatwick Airport (EGKK) |
| Time | Latitude | Longitude | Altitude | Speed | Heading |
|---|---|---|---|---|---|
| 2026-05-07 17:03 | 62.74577 | 7.25964 | 16 ft | 0 kts | 340° |
| 2026-05-07 17:31 | 62.74575 | 7.25966 | 16 ft | 2 kts | 340° |
| 2026-05-07 17:31 | 62.74552 | 7.25992 | 19 ft | 4 kts | 317° |
| 2026-05-07 17:31 | 62.74535 | 7.26032 | 16 ft | 2 kts | 311° |
| 2026-05-07 17:32 | 62.74531 | 7.26041 | 21 ft | 1 kts | 311° |
| 2026-05-07 17:34 | 62.74536 | 7.26041 | 20 ft | 2 kts | 359° |
| 2026-05-07 17:34 | 62.74548 | 7.26079 | 16 ft | 6 kts | 63° |
| 2026-05-07 17:34 | 62.74563 | 7.26226 | 16 ft | 10 kts | 115° |
| 2026-05-07 17:34 | 62.74498 | 7.26298 | 18 ft | 11 kts | 135° |
| 2026-05-07 17:35 | 62.74515 | 7.26491 | 15 ft | 22 kts | 71° |
| 2026-05-07 17:35 | 62.74593 | 7.26987 | 16 ft | 45 kts | 70° |
| 2026-05-07 17:35 | 62.74695 | 7.27620 | 19 ft | 43 kts | 71° |
| 2026-05-07 17:35 | 62.74787 | 7.28214 | 17 ft | 36 kts | 70° |
| 2026-05-07 17:36 | 62.74841 | 7.28556 | 17 ft | 14 kts | 71° |
| 2026-05-07 17:36 | 62.74873 | 7.28684 | 17 ft | 6 kts | 50° |
| 2026-05-07 17:36 | 62.74871 | 7.28756 | 18 ft | 6 kts | 161° |
| 2026-05-07 17:36 | 62.74858 | 7.28685 | 16 ft | 6 kts | 281° |
| 2026-05-07 17:37 | 62.74852 | 7.28618 | 17 ft | 0 kts | 250° |
| 2026-05-07 17:37 | 62.74825 | 7.28450 | 17 ft | 53 kts | 251° |
| 2026-05-07 17:37 | 62.74584 | 7.26925 | 22 ft | 155 kts | 251° |
| 2026-05-07 17:37 | 62.74189 | 7.24460 | 866 ft | 181 kts | 252° |
| 2026-05-07 17:38 | 62.73796 | 7.21851 | 1295 ft | 187 kts | 252° |
| 2026-05-07 17:38 | 62.73370 | 7.19055 | 1467 ft | 205 kts | 252° |
| 2026-05-07 17:38 | 62.72866 | 7.15823 | 2374 ft | 229 kts | 251° |
| 2026-05-07 17:38 | 62.72348 | 7.12555 | 4061 ft | 229 kts | 249° |
| 2026-05-07 17:39 | 62.71810 | 7.09198 | 5375 ft | 244 kts | 248° |
| 2026-05-07 17:39 | 62.71231 | 7.05611 | 6722 ft | 256 kts | 248° |
| 2026-05-07 17:39 | 62.70645 | 7.01974 | 8368 ft | 257 kts | 249° |
| 2026-05-07 17:39 | 62.70041 | 6.98227 | 10069 ft | 260 kts | 250° |
| 2026-05-07 17:40 | 62.69378 | 6.94528 | 11224 ft | 277 kts | 241° |
| 2026-05-07 17:40 | 62.68100 | 6.91050 | 11785 ft | 314 kts | 227° |
| 2026-05-07 17:40 | 62.66452 | 6.87481 | 12103 ft | 353 kts | 225° |
| 2026-05-07 17:40 | 62.64628 | 6.83640 | 12823 ft | 373 kts | 225° |
| 2026-05-07 17:41 | 62.62749 | 6.79672 | 14042 ft | 379 kts | 225° |
| 2026-05-07 17:41 | 62.60863 | 6.75644 | 15207 ft | 381 kts | 226° |
| 2026-05-07 17:41 | 62.58978 | 6.71576 | 16313 ft | 384 kts | 227° |
| 2026-05-07 17:41 | 62.57079 | 6.67442 | 17308 ft | 390 kts | 227° |
| 2026-05-07 17:42 | 62.55159 | 6.63244 | 18305 ft | 394 kts | 227° |
| 2026-05-07 17:42 | 62.53226 | 6.59011 | 19136 ft | 397 kts | 228° |
| 2026-05-07 17:42 | 62.51275 | 6.54737 | 19948 ft | 400 kts | 229° |
| 2026-05-07 17:42 | 62.49311 | 6.50441 | 20727 ft | 403 kts | 229° |
| 2026-05-07 17:43 | 62.47327 | 6.46107 | 21437 ft | 407 kts | 229° |
| 2026-05-07 17:43 | 62.45326 | 6.41747 | 22152 ft | 410 kts | 229° |
| 2026-05-07 17:43 | 62.43312 | 6.37366 | 22829 ft | 413 kts | 229° |
| 2026-05-07 17:43 | 62.41278 | 6.32953 | 23417 ft | 417 kts | 230° |
| 2026-05-07 17:44 | 62.39225 | 6.28508 | 23963 ft | 419 kts | 230° |
| 2026-05-07 17:44 | 62.37158 | 6.24044 | 24377 ft | 422 kts | 230° |
| 2026-05-07 17:44 | 62.35077 | 6.19556 | 24816 ft | 425 kts | 230° |
| 2026-05-07 17:44 | 62.32981 | 6.15048 | 25295 ft | 426 kts | 230° |
| 2026-05-07 17:45 | 62.30880 | 6.10539 | 25785 ft | 428 kts | 230° |
| 2026-05-07 17:45 | 62.28774 | 6.06029 | 26381 ft | 426 kts | 230° |
| 2026-05-07 17:45 | 62.26689 | 6.01575 | 27129 ft | 421 kts | 230° |
| 2026-05-07 17:45 | 62.24625 | 5.97170 | 27862 ft | 416 kts | 230° |
| 2026-05-07 17:46 | 62.22575 | 5.92810 | 28542 ft | 413 kts | 231° |
| 2026-05-07 17:46 | 62.20541 | 5.88491 | 29142 ft | 411 kts | 231° |
| 2026-05-07 17:46 | 62.18514 | 5.84194 | 29699 ft | 410 kts | 231° |
| 2026-05-07 17:46 | 62.16493 | 5.79914 | 30313 ft | 407 kts | 231° |
| 2026-05-07 17:47 | 62.14490 | 5.75685 | 30903 ft | 403 kts | 231° |
| 2026-05-07 17:47 | 62.12498 | 5.71485 | 31363 ft | 402 kts | 231° |
| 2026-05-07 17:47 | 62.10503 | 5.67279 | 31684 ft | 403 kts | 231° |
| 2026-05-07 17:47 | 62.08517 | 5.63105 | 32271 ft | 399 kts | 231° |
| 2026-05-07 17:48 | 62.06543 | 5.58966 | 32782 ft | 397 kts | 231° |
| 2026-05-07 17:48 | 62.04572 | 5.54839 | 33128 ft | 398 kts | 231° |
| 2026-05-07 17:48 | 62.02535 | 5.50810 | 33539 ft | 404 kts | 225° |
| 2026-05-07 17:48 | 62.00104 | 5.47647 | 34041 ft | 413 kts | 216° |
| 2026-05-07 17:49 | 61.97477 | 5.45063 | 34361 ft | 420 kts | 210° |
| 2026-05-07 17:49 | 61.94631 | 5.43272 | 34633 ft | 434 kts | 200° |
| 2026-05-07 17:49 | 61.91645 | 5.42157 | 34928 ft | 437 kts | 198° |
| 2026-05-07 17:49 | 61.88631 | 5.41182 | 35247 ft | 439 kts | 197° |
| 2026-05-07 17:50 | 61.85645 | 5.40260 | 35543 ft | 440 kts | 196° |
| 2026-05-07 17:50 | 61.82618 | 5.39324 | 35879 ft | 440 kts | 196° |
| 2026-05-07 17:50 | 61.79600 | 5.38374 | 36103 ft | 437 kts | 196° |
| 2026-05-07 17:50 | 61.76596 | 5.37412 | 36095 ft | 437 kts | 196° |
| 2026-05-07 17:51 | 61.70568 | 5.35430 | 36099 ft | 438 kts | 197° |
| 2026-05-07 17:51 | 61.64554 | 5.33425 | 36099 ft | 438 kts | 197° |
| 2026-05-07 17:52 | 61.58540 | 5.31423 | 36100 ft | 437 kts | 197° |
| 2026-05-07 17:52 | 61.52533 | 5.29434 | 36104 ft | 437 kts | 197° |
| 2026-05-07 17:53 | 61.46528 | 5.27456 | 36098 ft | 437 kts | 197° |
| 2026-05-07 17:53 | 61.40520 | 5.25482 | 36112 ft | 437 kts | 196° |
| 2026-05-07 17:54 | 61.34506 | 5.23511 | 36102 ft | 437 kts | 196° |
| 2026-05-07 17:54 | 61.28527 | 5.21572 | 36095 ft | 438 kts | 196° |
| 2026-05-07 17:55 | 61.22501 | 5.19623 | 36073 ft | 438 kts | 196° |
| 2026-05-07 17:55 | 61.16457 | 5.17676 | 36105 ft | 436 kts | 196° |
| 2026-05-07 17:56 | 61.10508 | 5.15763 | 36099 ft | 435 kts | 196° |
| 2026-05-07 17:56 | 61.04530 | 5.13851 | 36107 ft | 435 kts | 196° |
| 2026-05-07 17:57 | 60.99521 | 5.12261 | 36100 ft | 434 kts | 196° |
| 2026-05-07 17:57 | 60.92588 | 5.10048 | 36082 ft | 434 kts | 196° |
| 2026-05-07 17:58 | 60.86621 | 5.08150 | 36095 ft | 434 kts | 195° |
| 2026-05-07 17:58 | 60.80655 | 5.06267 | 36092 ft | 434 kts | 195° |
| 2026-05-07 17:59 | 60.74699 | 5.04396 | 36100 ft | 433 kts | 195° |
| 2026-05-07 17:59 | 60.68739 | 5.02530 | 36100 ft | 433 kts | 195° |
| 2026-05-07 18:00 | 60.62783 | 5.00672 | 36085 ft | 432 kts | 195° |
| 2026-05-07 18:00 | 60.56845 | 4.98827 | 36103 ft | 432 kts | 195° |
| 2026-05-07 18:01 | 60.50904 | 4.96986 | 36099 ft | 432 kts | 195° |
| 2026-05-07 18:01 | 60.44954 | 4.95151 | 36110 ft | 432 kts | 195° |
| 2026-05-07 18:02 | 60.36036 | 4.92411 | 36076 ft | 433 kts | 195° |
| 2026-05-07 18:03 | 60.30083 | 4.90591 | 36097 ft | 433 kts | 195° |
| 2026-05-07 18:03 | 60.24167 | 4.88789 | 36105 ft | 433 kts | 195° |
| 2026-05-07 18:04 | 60.18204 | 4.86979 | 36102 ft | 434 kts | 195° |
| 2026-05-07 18:04 | 60.12237 | 4.85175 | 36104 ft | 434 kts | 195° |
| 2026-05-07 18:05 | 60.06262 | 4.83375 | 36084 ft | 434 kts | 194° |
| 2026-05-07 18:05 | 60.00289 | 4.81583 | 36099 ft | 434 kts | 194° |
| 2026-05-07 18:06 | 59.94309 | 4.79795 | 36100 ft | 435 kts | 194° |
| 2026-05-07 18:06 | 59.88321 | 4.78010 | 36104 ft | 435 kts | 194° |
| 2026-05-07 18:07 | 59.82333 | 4.76233 | 36109 ft | 435 kts | 194° |
| 2026-05-07 18:07 | 59.77348 | 4.74758 | 36095 ft | 435 kts | 194° |
| 2026-05-07 18:08 | 59.71362 | 4.72993 | 36105 ft | 435 kts | 194° |
| 2026-05-07 18:08 | 59.65376 | 4.71234 | 36113 ft | 435 kts | 194° |
| 2026-05-07 18:09 | 59.59384 | 4.69480 | 36111 ft | 435 kts | 194° |
| 2026-05-07 18:09 | 59.53392 | 4.67732 | 36113 ft | 435 kts | 194° |
| 2026-05-07 18:10 | 59.47402 | 4.65991 | 36103 ft | 435 kts | 193° |
| 2026-05-07 18:10 | 59.41415 | 4.64257 | 36107 ft | 435 kts | 193° |
| 2026-05-07 18:11 | 59.35427 | 4.62528 | 36110 ft | 435 kts | 193° |
| 2026-05-07 18:11 | 59.29436 | 4.60805 | 36109 ft | 435 kts | 193° |
| 2026-05-07 18:12 | 59.23439 | 4.59087 | 36087 ft | 436 kts | 193° |
| 2026-05-07 18:12 | 59.17443 | 4.57375 | 36107 ft | 435 kts | 193° |
| 2026-05-07 18:13 | 59.11447 | 4.55668 | 36111 ft | 436 kts | 193° |
| 2026-05-07 18:13 | 59.05445 | 4.53966 | 36109 ft | 436 kts | 193° |
| 2026-05-07 18:14 | 58.99479 | 4.52281 | 36110 ft | 436 kts | 193° |
| 2026-05-07 18:14 | 58.93470 | 4.50589 | 36091 ft | 436 kts | 192° |
| 2026-05-07 18:15 | 58.87465 | 4.48905 | 36108 ft | 436 kts | 192° |
| 2026-05-07 18:15 | 58.81456 | 4.47226 | 36112 ft | 436 kts | 192° |
| 2026-05-07 18:16 | 58.75447 | 4.45552 | 36112 ft | 437 kts | 192° |
| 2026-05-07 18:16 | 58.69432 | 4.43882 | 36111 ft | 437 kts | 192° |
| 2026-05-07 18:17 | 58.63412 | 4.42217 | 36112 ft | 437 kts | 192° |
| 2026-05-07 18:17 | 58.57396 | 4.40559 | 36114 ft | 437 kts | 192° |
| 2026-05-07 18:18 | 58.51380 | 4.38906 | 36112 ft | 437 kts | 192° |
| 2026-05-07 18:18 | 58.45365 | 4.37259 | 36112 ft | 437 kts | 192° |
| 2026-05-07 18:19 | 58.39350 | 4.35618 | 36098 ft | 436 kts | 192° |
| 2026-05-07 18:19 | 58.33337 | 4.33983 | 36112 ft | 436 kts | 192° |
| 2026-05-07 18:20 | 58.27330 | 4.32355 | 36116 ft | 436 kts | 192° |
| 2026-05-07 18:20 | 58.21330 | 4.30736 | 36113 ft | 435 kts | 192° |
| 2026-05-07 18:21 | 58.15380 | 4.29134 | 36109 ft | 434 kts | 192° |
| 2026-05-07 18:21 | 58.09403 | 4.27531 | 36102 ft | 434 kts | 191° |
| 2026-05-07 18:22 | 58.03433 | 4.25935 | 36115 ft | 433 kts | 191° |
| 2026-05-07 18:22 | 57.97463 | 4.24344 | 36115 ft | 433 kts | 191° |
| 2026-05-07 18:23 | 57.91495 | 4.22759 | 36115 ft | 433 kts | 191° |
| 2026-05-07 18:23 | 57.85524 | 4.21179 | 36096 ft | 434 kts | 191° |
| 2026-05-07 18:24 | 57.79540 | 4.19600 | 36113 ft | 434 kts | 191° |
| 2026-05-07 18:24 | 57.73557 | 4.18027 | 36121 ft | 435 kts | 190° |
| 2026-05-07 18:25 | 57.67557 | 4.16455 | 36116 ft | 435 kts | 190° |
| 2026-05-07 18:25 | 57.61551 | 4.14886 | 36113 ft | 436 kts | 190° |
| 2026-05-07 18:26 | 57.55536 | 4.13345 | 36108 ft | 437 kts | 189° |
| 2026-05-07 18:26 | 57.49474 | 4.12296 | 36117 ft | 438 kts | 187° |
| 2026-05-07 18:27 | 57.43395 | 4.11427 | 36116 ft | 438 kts | 186° |
| 2026-05-07 18:27 | 57.37308 | 4.10517 | 36116 ft | 439 kts | 187° |
| 2026-05-07 18:28 | 57.31222 | 4.09564 | 36107 ft | 439 kts | 186° |
| 2026-05-07 18:28 | 57.25174 | 4.08602 | 36117 ft | 439 kts | 186° |
| 2026-05-07 18:29 | 57.19089 | 4.07634 | 36119 ft | 439 kts | 186° |
| 2026-05-07 18:29 | 57.13000 | 4.06669 | 36120 ft | 439 kts | 186° |
| 2026-05-07 18:30 | 57.06912 | 4.05709 | 36120 ft | 439 kts | 186° |
| 2026-05-07 18:30 | 57.00822 | 4.04751 | 36114 ft | 439 kts | 186° |
| 2026-05-07 18:31 | 56.94731 | 4.03797 | 36123 ft | 439 kts | 186° |
| 2026-05-07 18:31 | 56.88641 | 4.02846 | 36119 ft | 439 kts | 186° |
| 2026-05-07 18:32 | 56.82545 | 4.01897 | 36122 ft | 439 kts | 186° |
| 2026-05-07 18:32 | 56.76452 | 4.00952 | 36110 ft | 439 kts | 186° |
| 2026-05-07 18:33 | 56.70356 | 4.00009 | 36124 ft | 439 kts | 186° |
| 2026-05-07 18:33 | 56.64301 | 3.99076 | 36126 ft | 440 kts | 186° |
| 2026-05-07 18:34 | 56.58162 | 3.98133 | 36122 ft | 440 kts | 186° |
| 2026-05-07 18:34 | 56.52110 | 3.97206 | 36123 ft | 440 kts | 186° |
| 2026-05-07 18:35 | 56.46003 | 3.96274 | 36123 ft | 440 kts | 186° |
| 2026-05-07 18:35 | 56.39895 | 3.95345 | 36120 ft | 441 kts | 186° |
| 2026-05-07 18:36 | 56.33782 | 3.94418 | 36125 ft | 441 kts | 186° |
| 2026-05-07 18:36 | 56.27665 | 3.93493 | 36125 ft | 441 kts | 186° |
| 2026-05-07 18:37 | 56.21540 | 3.92570 | 36113 ft | 442 kts | 185° |
| 2026-05-07 18:37 | 56.15416 | 3.91650 | 36130 ft | 442 kts | 185° |
| 2026-05-07 18:38 | 56.09285 | 3.90732 | 36124 ft | 442 kts | 185° |
| 2026-05-07 18:38 | 56.03143 | 3.89816 | 36129 ft | 443 kts | 185° |
| 2026-05-07 18:39 | 55.97003 | 3.88902 | 36124 ft | 443 kts | 185° |
| 2026-05-07 18:39 | 55.90835 | 3.87987 | 36123 ft | 444 kts | 185° |
| 2026-05-07 18:40 | 55.84694 | 3.87080 | 36123 ft | 444 kts | 185° |
| 2026-05-07 18:40 | 55.78539 | 3.86173 | 36128 ft | 444 kts | 185° |
| 2026-05-07 18:41 | 55.72384 | 3.85269 | 36124 ft | 444 kts | 185° |
| 2026-05-07 18:41 | 55.66233 | 3.84368 | 36135 ft | 444 kts | 185° |
| 2026-05-07 18:42 | 55.60075 | 3.83469 | 36133 ft | 444 kts | 185° |
| 2026-05-07 18:42 | 55.53919 | 3.82573 | 36131 ft | 444 kts | 185° |
| 2026-05-07 18:43 | 55.47807 | 3.81687 | 36127 ft | 444 kts | 185° |
| 2026-05-07 18:43 | 55.41649 | 3.80796 | 36128 ft | 444 kts | 185° |
| 2026-05-07 18:44 | 55.35489 | 3.79908 | 36130 ft | 444 kts | 185° |
| 2026-05-07 18:44 | 55.29327 | 3.79023 | 36132 ft | 444 kts | 185° |
| 2026-05-07 18:45 | 55.23167 | 3.78140 | 36133 ft | 444 kts | 185° |
| 2026-05-07 18:45 | 55.17006 | 3.77260 | 36131 ft | 444 kts | 184° |
| 2026-05-07 18:46 | 55.10843 | 3.76383 | 36134 ft | 444 kts | 184° |
| 2026-05-07 18:46 | 55.04684 | 3.75509 | 36127 ft | 444 kts | 184° |
| 2026-05-07 18:47 | 54.98518 | 3.74637 | 36127 ft | 444 kts | 184° |
| 2026-05-07 18:47 | 54.92354 | 3.73767 | 36126 ft | 444 kts | 184° |
| 2026-05-07 18:48 | 54.86192 | 3.72900 | 36124 ft | 444 kts | 184° |
| 2026-05-07 18:48 | 54.80028 | 3.72036 | 36128 ft | 444 kts | 184° |
| 2026-05-07 18:49 | 54.73865 | 3.71175 | 36131 ft | 444 kts | 184° |
| 2026-05-07 18:49 | 54.67703 | 3.70316 | 36123 ft | 444 kts | 184° |
| 2026-05-07 18:50 | 54.61540 | 3.69460 | 36129 ft | 444 kts | 184° |
| 2026-05-07 18:50 | 54.55371 | 3.68605 | 36124 ft | 445 kts | 184° |
| 2026-05-07 18:51 | 54.49205 | 3.67754 | 36126 ft | 445 kts | 184° |
| 2026-05-07 18:51 | 54.43036 | 3.66905 | 36128 ft | 445 kts | 184° |
| 2026-05-07 18:52 | 54.36864 | 3.66057 | 36126 ft | 445 kts | 184° |
| 2026-05-07 18:52 | 54.30699 | 3.65214 | 36123 ft | 445 kts | 184° |
| 2026-05-07 18:53 | 54.24587 | 3.64136 | 36125 ft | 445 kts | 186° |
| 2026-05-07 18:53 | 54.18442 | 3.62865 | 36123 ft | 445 kts | 186° |
| 2026-05-07 18:54 | 54.12299 | 3.61619 | 36125 ft | 445 kts | 185° |
| 2026-05-07 18:54 | 54.06156 | 3.60410 | 36125 ft | 445 kts | 185° |
| 2026-05-07 18:55 | 54.01036 | 3.59415 | 36124 ft | 445 kts | 185° |
| 2026-05-07 18:55 | 53.94887 | 3.58224 | 36121 ft | 445 kts | 185° |
| 2026-05-07 18:56 | 53.88729 | 3.57034 | 36119 ft | 445 kts | 185° |
| 2026-05-07 18:56 | 53.82575 | 3.55848 | 36123 ft | 445 kts | 185° |
| 2026-05-07 18:57 | 53.76419 | 3.54664 | 36115 ft | 445 kts | 185° |
| 2026-05-07 18:57 | 53.70260 | 3.53483 | 36119 ft | 445 kts | 185° |
| 2026-05-07 18:58 | 53.64095 | 3.52305 | 36116 ft | 446 kts | 186° |
| 2026-05-07 18:58 | 53.58099 | 3.49748 | 36112 ft | 447 kts | 203° |
| 2026-05-07 18:59 | 53.52555 | 3.45000 | 36111 ft | 447 kts | 207° |
| 2026-05-07 18:59 | 53.47039 | 3.40141 | 36111 ft | 448 kts | 206° |
| 2026-05-07 19:00 | 53.41508 | 3.35345 | 36110 ft | 448 kts | 206° |
| 2026-05-07 19:00 | 53.35966 | 3.30597 | 36116 ft | 448 kts | 206° |
| 2026-05-07 19:01 | 53.30415 | 3.25864 | 36131 ft | 448 kts | 206° |
| 2026-05-07 19:01 | 53.24902 | 3.21177 | 36127 ft | 448 kts | 206° |
| 2026-05-07 19:02 | 53.19310 | 3.16435 | 36131 ft | 448 kts | 206° |
| 2026-05-07 19:02 | 53.13762 | 3.11744 | 36132 ft | 447 kts | 206° |
| 2026-05-07 19:03 | 53.08253 | 3.07099 | 36129 ft | 447 kts | 206° |
| 2026-05-07 19:03 | 53.02708 | 3.02437 | 36109 ft | 446 kts | 206° |
| 2026-05-07 19:04 | 52.97167 | 2.97792 | 36108 ft | 446 kts | 206° |
| 2026-05-07 19:04 | 52.91632 | 2.93166 | 36101 ft | 445 kts | 207° |
| 2026-05-07 19:05 | 52.86099 | 2.88554 | 35846 ft | 448 kts | 207° |
| 2026-05-07 19:05 | 52.83323 | 2.86244 | 35322 ft | 444 kts | 206° |
| 2026-05-07 19:05 | 52.80572 | 2.83958 | 34719 ft | 440 kts | 206° |
| 2026-05-07 19:05 | 52.77853 | 2.81703 | 34101 ft | 437 kts | 206° |
| 2026-05-07 19:06 | 52.75147 | 2.79462 | 33366 ft | 434 kts | 206° |
| 2026-05-07 19:06 | 52.69789 | 2.75037 | 32020 ft | 426 kts | 206° |
| 2026-05-07 19:06 | 52.67144 | 2.72859 | 31353 ft | 423 kts | 206° |
| 2026-05-07 19:07 | 52.64522 | 2.70703 | 30664 ft | 419 kts | 206° |
| 2026-05-07 19:07 | 52.61915 | 2.68560 | 29950 ft | 418 kts | 206° |
| 2026-05-07 19:07 | 52.59285 | 2.66401 | 29168 ft | 432 kts | 206° |
| 2026-05-07 19:07 | 52.56530 | 2.64141 | 28362 ft | 451 kts | 206° |
| 2026-05-07 19:08 | 52.53712 | 2.61833 | 27522 ft | 454 kts | 207° |
| 2026-05-07 19:08 | 52.50870 | 2.59508 | 26688 ft | 458 kts | 207° |
| 2026-05-07 19:08 | 52.48007 | 2.57172 | 26393 ft | 462 kts | 207° |
| 2026-05-07 19:08 | 52.45177 | 2.54867 | 26247 ft | 452 kts | 207° |
| 2026-05-07 19:09 | 52.42400 | 2.52615 | 26119 ft | 428 kts | 207° |
| 2026-05-07 19:09 | 52.39832 | 2.50535 | 26089 ft | 406 kts | 207° |
| 2026-05-07 19:09 | 52.37361 | 2.48535 | 26076 ft | 386 kts | 207° |
| 2026-05-07 19:09 | 52.35010 | 2.46633 | 26078 ft | 368 kts | 207° |
| 2026-05-07 19:10 | 52.32740 | 2.44796 | 26094 ft | 366 kts | 207° |
| 2026-05-07 19:10 | 52.30396 | 2.42899 | 26111 ft | 385 kts | 207° |
| 2026-05-07 19:10 | 52.27920 | 2.40897 | 26115 ft | 401 kts | 207° |
| 2026-05-07 19:10 | 52.25401 | 2.38865 | 26104 ft | 416 kts | 207° |
| 2026-05-07 19:11 | 52.22767 | 2.36744 | 26107 ft | 428 kts | 207° |
| 2026-05-07 19:11 | 52.20060 | 2.34569 | 26106 ft | 439 kts | 207° |
| 2026-05-07 19:11 | 52.17292 | 2.32347 | 26105 ft | 448 kts | 207° |
| 2026-05-07 19:11 | 52.14477 | 2.30091 | 26091 ft | 452 kts | 207° |
| 2026-05-07 19:12 | 52.11662 | 2.27839 | 26080 ft | 450 kts | 207° |
| 2026-05-07 19:12 | 52.08855 | 2.25597 | 26078 ft | 446 kts | 207° |
| 2026-05-07 19:12 | 52.06163 | 2.23454 | 25921 ft | 414 kts | 207° |
| 2026-05-07 19:12 | 52.03669 | 2.21471 | 25745 ft | 385 kts | 207° |
| 2026-05-07 19:13 | 52.01323 | 2.19607 | 25275 ft | 368 kts | 208° |
| 2026-05-07 19:13 | 51.99041 | 2.17790 | 24385 ft | 365 kts | 208° |
| 2026-05-07 19:13 | 51.96757 | 2.15971 | 23479 ft | 367 kts | 208° |
| 2026-05-07 19:13 | 51.94528 | 2.14200 | 23482 ft | 350 kts | 208° |
| 2026-05-07 19:14 | 51.92327 | 2.12452 | 23379 ft | 357 kts | 208° |
| 2026-05-07 19:14 | 51.90065 | 2.10656 | 23270 ft | 366 kts | 207° |
| 2026-05-07 19:14 | 51.87776 | 2.08842 | 23139 ft | 366 kts | 207° |
| 2026-05-07 19:14 | 51.85492 | 2.07038 | 23028 ft | 364 kts | 207° |
| 2026-05-07 19:15 | 51.83222 | 2.05246 | 22915 ft | 362 kts | 207° |
| 2026-05-07 19:15 | 51.80961 | 2.03463 | 22804 ft | 361 kts | 207° |
| 2026-05-07 19:15 | 51.78705 | 2.01686 | 22689 ft | 360 kts | 208° |
| 2026-05-07 19:15 | 51.76454 | 1.99914 | 22582 ft | 360 kts | 207° |
| 2026-05-07 19:16 | 51.74199 | 1.98141 | 22480 ft | 361 kts | 207° |
| 2026-05-07 19:16 | 51.71936 | 1.96362 | 22369 ft | 361 kts | 207° |
| 2026-05-07 19:16 | 51.69680 | 1.94593 | 22262 ft | 360 kts | 207° |
| 2026-05-07 19:16 | 51.67431 | 1.92832 | 22153 ft | 359 kts | 207° |
| 2026-05-07 19:17 | 51.65252 | 1.90875 | 21953 ft | 359 kts | 218° |
| 2026-05-07 19:17 | 51.63515 | 1.87983 | 21493 ft | 359 kts | 230° |
| 2026-05-07 19:17 | 51.61903 | 1.84944 | 20981 ft | 356 kts | 230° |
| 2026-05-07 19:17 | 51.60288 | 1.81939 | 20498 ft | 352 kts | 230° |
| 2026-05-07 19:18 | 51.58682 | 1.78982 | 20027 ft | 351 kts | 229° |
| 2026-05-07 19:18 | 51.57075 | 1.76043 | 19562 ft | 350 kts | 229° |
| 2026-05-07 19:18 | 51.55473 | 1.73124 | 19091 ft | 347 kts | 229° |
| 2026-05-07 19:18 | 51.54132 | 1.70687 | 18706 ft | 344 kts | 229° |
| 2026-05-07 19:19 | 51.52553 | 1.67819 | 18230 ft | 340 kts | 229° |
| 2026-05-07 19:19 | 51.51111 | 1.65207 | 17757 ft | 337 kts | 229° |
| 2026-05-07 19:19 | 51.49568 | 1.62404 | 17285 ft | 333 kts | 230° |
| 2026-05-07 19:19 | 51.48440 | 1.59563 | 16871 ft | 329 kts | 247° |
| 2026-05-07 19:20 | 51.47667 | 1.56201 | 16473 ft | 326 kts | 250° |
| 2026-05-07 19:20 | 51.46940 | 1.52861 | 16034 ft | 327 kts | 250° |
| 2026-05-07 19:20 | 51.46177 | 1.49412 | 15592 ft | 329 kts | 249° |
| 2026-05-07 19:20 | 51.45396 | 1.45971 | 15145 ft | 328 kts | 249° |
| 2026-05-07 19:21 | 51.44620 | 1.42598 | 14712 ft | 326 kts | 249° |
| 2026-05-07 19:21 | 51.43810 | 1.39217 | 14282 ft | 324 kts | 243° |
| 2026-05-07 19:21 | 51.42494 | 1.36346 | 14133 ft | 323 kts | 223° |
| 2026-05-07 19:21 | 51.40752 | 1.34059 | 14099 ft | 324 kts | 217° |
| 2026-05-07 19:22 | 51.38951 | 1.31942 | 14078 ft | 319 kts | 216° |
| 2026-05-07 19:22 | 51.37146 | 1.29867 | 14073 ft | 319 kts | 215° |
| 2026-05-07 19:22 | 51.35343 | 1.27793 | 14076 ft | 320 kts | 216° |
| 2026-05-07 19:22 | 51.33538 | 1.25701 | 14076 ft | 320 kts | 216° |
| 2026-05-07 19:23 | 51.31740 | 1.23604 | 14067 ft | 320 kts | 216° |
| 2026-05-07 19:23 | 51.29946 | 1.21504 | 14069 ft | 320 kts | 216° |
| 2026-05-07 19:23 | 51.28154 | 1.19400 | 14072 ft | 320 kts | 216° |
| 2026-05-07 19:23 | 51.26363 | 1.17296 | 14074 ft | 320 kts | 216° |
| 2026-05-07 19:24 | 51.24583 | 1.15205 | 13978 ft | 315 kts | 216° |
| 2026-05-07 19:24 | 51.22822 | 1.13136 | 13597 ft | 313 kts | 216° |
| 2026-05-07 19:24 | 51.21072 | 1.11083 | 13025 ft | 313 kts | 216° |
| 2026-05-07 19:24 | 51.19317 | 1.09024 | 12474 ft | 313 kts | 216° |
| 2026-05-07 19:25 | 51.17572 | 1.06979 | 12147 ft | 310 kts | 216° |
| 2026-05-07 19:25 | 51.15819 | 1.04927 | 12104 ft | 314 kts | 216° |
| 2026-05-07 19:25 | 51.14063 | 1.02872 | 12080 ft | 312 kts | 216° |
| 2026-05-07 19:25 | 51.12322 | 1.00837 | 12071 ft | 310 kts | 216° |
| 2026-05-07 19:26 | 51.10579 | 0.98800 | 12045 ft | 310 kts | 216° |
| 2026-05-07 19:26 | 51.08841 | 0.96774 | 12042 ft | 310 kts | 216° |
| 2026-05-07 19:26 | 51.07107 | 0.94755 | 12076 ft | 309 kts | 216° |
| 2026-05-07 19:26 | 51.05549 | 0.92438 | 11952 ft | 306 kts | 236° |
| 2026-05-07 19:27 | 51.04550 | 0.89460 | 11682 ft | 305 kts | 244° |
| 2026-05-07 19:27 | 51.03658 | 0.86405 | 11256 ft | 306 kts | 244° |
| 2026-05-07 19:27 | 51.02768 | 0.83337 | 10841 ft | 306 kts | 244° |
| 2026-05-07 19:27 | 51.01873 | 0.80278 | 10502 ft | 304 kts | 244° |
| 2026-05-07 19:28 | 51.00989 | 0.77289 | 10176 ft | 302 kts | 244° |
| 2026-05-07 19:28 | 51.00103 | 0.74318 | 10073 ft | 292 kts | 244° |
| 2026-05-07 19:28 | 50.99246 | 0.71458 | 9981 ft | 280 kts | 244° |
| 2026-05-07 19:28 | 50.98429 | 0.68733 | 9874 ft | 267 kts | 244° |
| 2026-05-07 19:29 | 50.97650 | 0.66142 | 9766 ft | 255 kts | 244° |
| 2026-05-07 19:29 | 50.96899 | 0.63648 | 9678 ft | 246 kts | 244° |
| 2026-05-07 19:29 | 50.96168 | 0.61225 | 9427 ft | 243 kts | 244° |
| 2026-05-07 19:29 | 50.95439 | 0.58809 | 9133 ft | 243 kts | 244° |
| 2026-05-07 19:30 | 50.94712 | 0.56396 | 9005 ft | 244 kts | 244° |
| 2026-05-07 19:30 | 50.93977 | 0.53962 | 8980 ft | 245 kts | 244° |
| 2026-05-07 19:30 | 50.93244 | 0.51541 | 8978 ft | 242 kts | 244° |
| 2026-05-07 19:30 | 50.92515 | 0.49133 | 8978 ft | 242 kts | 244° |
| 2026-05-07 19:31 | 50.91784 | 0.46723 | 8989 ft | 243 kts | 245° |
| 2026-05-07 19:31 | 50.91363 | 0.44153 | 8972 ft | 244 kts | 273° |
| 2026-05-07 19:31 | 50.91642 | 0.41511 | 8970 ft | 242 kts | 281° |
| 2026-05-07 19:31 | 50.91991 | 0.38905 | 8789 ft | 241 kts | 281° |
| 2026-05-07 19:32 | 50.92343 | 0.36306 | 8462 ft | 242 kts | 281° |
| 2026-05-07 19:32 | 50.92698 | 0.33686 | 8140 ft | 243 kts | 281° |
| 2026-05-07 19:32 | 50.93050 | 0.31070 | 8023 ft | 244 kts | 281° |
| 2026-05-07 19:32 | 50.93407 | 0.28425 | 7995 ft | 246 kts | 281° |
| 2026-05-07 19:33 | 50.93762 | 0.25786 | 7981 ft | 243 kts | 281° |
| 2026-05-07 19:33 | 50.94114 | 0.23180 | 7878 ft | 240 kts | 281° |
| 2026-05-07 19:33 | 50.94461 | 0.20597 | 7596 ft | 241 kts | 281° |
| 2026-05-07 19:33 | 50.94809 | 0.17992 | 7308 ft | 241 kts | 281° |
| 2026-05-07 19:34 | 50.95152 | 0.15392 | 7068 ft | 240 kts | 281° |
| 2026-05-07 19:34 | 50.95497 | 0.12787 | 7051 ft | 243 kts | 281° |
| 2026-05-07 19:34 | 50.95845 | 0.10161 | 7015 ft | 242 kts | 281° |
| 2026-05-07 19:34 | 50.96188 | 0.07561 | 7020 ft | 240 kts | 281° |
| 2026-05-07 19:35 | 50.96529 | 0.04964 | 7034 ft | 241 kts | 281° |
| 2026-05-07 19:35 | 50.96869 | 0.02361 | 7042 ft | 241 kts | 281° |
| 2026-05-07 19:35 | 50.97210 | -0.00251 | 7073 ft | 242 kts | 281° |
| 2026-05-07 19:35 | 50.97545 | -0.02862 | 7075 ft | 241 kts | 281° |
| 2026-05-07 19:36 | 50.97872 | -0.05468 | 7075 ft | 241 kts | 281° |
| 2026-05-07 19:36 | 50.98196 | -0.08071 | 7067 ft | 240 kts | 281° |
| 2026-05-07 19:36 | 50.98517 | -0.10664 | 7060 ft | 239 kts | 281° |
| 2026-05-07 19:36 | 50.98836 | -0.13248 | 7067 ft | 238 kts | 281° |
| 2026-05-07 19:37 | 50.99153 | -0.15817 | 7077 ft | 237 kts | 281° |
| 2026-05-07 19:37 | 50.99469 | -0.18381 | 7067 ft | 236 kts | 281° |
| 2026-05-07 19:37 | 50.99783 | -0.20937 | 6939 ft | 236 kts | 281° |
| 2026-05-07 19:37 | 51.00095 | -0.23491 | 6654 ft | 237 kts | 281° |
| 2026-05-07 19:38 | 51.00407 | -0.26075 | 6334 ft | 239 kts | 281° |
| 2026-05-07 19:38 | 51.00716 | -0.28670 | 6018 ft | 240 kts | 281° |
| 2026-05-07 19:38 | 51.01025 | -0.31281 | 5736 ft | 240 kts | 281° |
| 2026-05-07 19:38 | 51.01333 | -0.33881 | 5476 ft | 239 kts | 281° |
| 2026-05-07 19:39 | 51.01641 | -0.36477 | 5161 ft | 239 kts | 281° |
| 2026-05-07 19:39 | 51.01948 | -0.39070 | 4808 ft | 239 kts | 281° |
| 2026-05-07 19:39 | 51.02255 | -0.41662 | 4445 ft | 239 kts | 281° |
| 2026-05-07 19:39 | 51.02459 | -0.43372 | 4219 ft | 238 kts | 281° |
| 2026-05-07 19:40 | 51.02766 | -0.45951 | 3857 ft | 237 kts | 281° |
| 2026-05-07 19:40 | 51.03072 | -0.48516 | 3505 ft | 237 kts | 281° |
| 2026-05-07 19:40 | 51.03592 | -0.50943 | 3257 ft | 230 kts | 306° |
| 2026-05-07 19:40 | 51.04761 | -0.52473 | 3162 ft | 211 kts | 341° |
| 2026-05-07 19:41 | 51.06139 | -0.52629 | 3021 ft | 193 kts | 19° |
| 2026-05-07 19:41 | 51.07239 | -0.51582 | 3028 ft | 183 kts | 40° |
| 2026-05-07 19:41 | 51.08243 | -0.50318 | 3015 ft | 184 kts | 40° |
| 2026-05-07 19:41 | 51.09243 | -0.49049 | 3000 ft | 183 kts | 40° |
| 2026-05-07 19:42 | 51.10237 | -0.47778 | 2995 ft | 183 kts | 41° |
| 2026-05-07 19:42 | 51.10986 | -0.46199 | 2991 ft | 179 kts | 72° |
| 2026-05-07 19:42 | 51.11333 | -0.44295 | 3000 ft | 180 kts | 76° |
| 2026-05-07 19:42 | 51.11622 | -0.42349 | 2918 ft | 184 kts | 78° |
| 2026-05-07 19:43 | 51.11893 | -0.40354 | 2681 ft | 183 kts | 79° |
| 2026-05-07 19:43 | 51.12151 | -0.38455 | 2479 ft | 168 kts | 79° |
| 2026-05-07 19:43 | 51.12393 | -0.36682 | 2232 ft | 161 kts | 79° |
| 2026-05-07 19:43 | 51.12627 | -0.34959 | 2034 ft | 156 kts | 79° |
| 2026-05-07 19:44 | 51.12853 | -0.33307 | 1818 ft | 150 kts | 79° |
| 2026-05-07 19:44 | 51.13071 | -0.31707 | 1631 ft | 148 kts | 79° |
| 2026-05-07 19:44 | 51.13293 | -0.30087 | 1441 ft | 151 kts | 79° |
| 2026-05-07 19:44 | 51.13517 | -0.28452 | 1234 ft | 151 kts | 79° |
| 2026-05-07 19:45 | 51.13739 | -0.26839 | 1028 ft | 147 kts | 78° |
| 2026-05-07 19:45 | 51.13958 | -0.25244 | 850 ft | 148 kts | 78° |
| 2026-05-07 19:45 | 51.14175 | -0.23645 | 637 ft | 147 kts | 78° |
| 2026-05-07 19:45 | 51.14398 | -0.22063 | 383 ft | 146 kts | 78° |
| 2026-05-07 19:46 | 51.14611 | -0.20515 | 216 ft | 137 kts | 78° |
| 2026-05-07 19:46 | 51.14781 | -0.19273 | 204 ft | 88 kts | 77° |
| 2026-05-07 19:46 | 51.14886 | -0.18514 | 212 ft | 61 kts | 77° |
| 2026-05-07 19:46 | 51.14946 | -0.18097 | 208 ft | 29 kts | 72° |
| 2026-05-07 19:47 | 51.15028 | -0.17854 | 212 ft | 15 kts | 52° |
| 2026-05-07 19:47 | 51.15069 | -0.17772 | 204 ft | 7 kts | 49° |
| 2026-05-07 19:47 | 51.15112 | -0.17756 | 204 ft | 6 kts | 354° |
| 2026-05-07 19:47 | 51.15131 | -0.17760 | 204 ft | 2 kts | 355° |
| 2026-05-07 19:48 | 51.15163 | -0.17747 | 204 ft | 8 kts | 27° |
| 2026-05-07 19:48 | 51.15185 | -0.17664 | 209 ft | 9 kts | 77° |
| 2026-05-07 19:48 | 51.15200 | -0.17555 | 207 ft | 10 kts | 77° |
| 2026-05-07 19:48 | 51.15215 | -0.17451 | 203 ft | 9 kts | 77° |
| 2026-05-07 19:49 | 51.15222 | -0.17398 | 207 ft | 0 kts | 77° |
| 2026-05-07 19:49 | 51.15223 | -0.17398 | 207 ft | 0 kts | 77° |
| 2026-05-07 19:49 | 51.15225 | -0.17382 | 204 ft | 3 kts | 75° |
| 2026-05-07 19:49 | 51.15240 | -0.17350 | 213 ft | 4 kts | 36° |
| 2026-05-07 19:50 | 51.15288 | -0.17347 | 204 ft | 11 kts | 349° |
| 2026-05-07 19:50 | 51.15375 | -0.17377 | 203 ft | 13 kts | 348° |
| 2026-05-07 19:50 | 51.15463 | -0.17408 | 209 ft | 13 kts | 347° |
| 2026-05-07 19:50 | 51.15548 | -0.17439 | 207 ft | 12 kts | 348° |
| 2026-05-07 19:51 | 51.15632 | -0.17467 | 206 ft | 12 kts | 347° |
| 2026-05-07 19:51 | 51.15713 | -0.17496 | 203 ft | 12 kts | 347° |
| 2026-05-07 19:51 | 51.15766 | -0.17460 | 203 ft | 9 kts | 73° |
| 2026-05-07 19:51 | 51.15783 | -0.17350 | 207 ft | 11 kts | 77° |
| 2026-05-07 19:52 | 51.15800 | -0.17220 | 203 ft | 12 kts | 78° |
| 2026-05-07 19:52 | 51.15826 | -0.17097 | 207 ft | 12 kts | 46° |
| 2026-05-07 19:52 | 51.15900 | -0.17050 | 212 ft | 11 kts | 29° |
| 2026-05-07 19:52 | 51.15956 | -0.16966 | 203 ft | 11 kts | 56° |
| 2026-05-07 19:53 | 51.15988 | -0.16915 | 205 ft | 7 kts | 348° |
| 2026-05-07 19:53 | 51.16026 | -0.16948 | 205 ft | 3 kts | 333° |
| 2026-05-07 19:53 | 51.16039 | -0.16958 | 211 ft | 0 kts | 333° |